KSFB/SFB METAR and TAF weather

Enter ICAO airport designator
Station Type Date Time Source
KSFB METAR 2020/07/11 23:53 UTC NOAA

KSFB 112353Z 16005KT 10SM -TSRA CLR 25/23 A2989 RMK AO2 LTG DSNT S SLP119 P0002 60019 T02500228 10344 20239 55004


Station Type Date Time Source
KSFB Decoded METAR 2020/07/11 23:53 UTC NOAA

ORLANDO SANFORD AIRPORT, FL, United States (KSFB) 28-47N 081-15W
Jul 11, 2020 - 07:53 PM EDT / 2020.07.11 2353 UTC
Wind: from the SSE (160 degrees) at 6 MPH (5 KT):0
Visibility: 10 mile(s):0
Sky conditions: clear
Weather: light rain with thunder; Lightning observed
Precipitation last hour: 0.02 inches
Temperature: 77.0 F (25.0 C)
Dew Point: 73.0 F (22.8 C)
Relative Humidity: 87%
Pressure (altimeter): 29.89 in. Hg (1012 hPa)
Pressure tendency: 0.01 inches (0.4 hPa) lower than three hours ago
ob: KSFB 112353Z 16005KT 10SM -TSRA CLR 25/23 A2989 RMK AO2 LTG DSNT S SLP119 P0002 60019 T02500228 10344 20239 55004
cycle: 0

Station Type Date Time Source
KSFB TAF 2020/07/11 21:58 UTC NOAA

TAF
AMD KSFB 112057Z 1121/1218 28008KT P6SM VCTS SCT030CB BKN050
TEMPO 1121/1122 VRB15KT 5SM TSRA BKN040CB
FM112200 25008KT P6SM VCSH SCT040 SCT100
FM120100 28006KT P6SM FEW040 SCT120 BKN250
FM121500 26007KT P6SM VCSH SCT030 BKN250
FM121700 25008KT P6SM VCTS SCT035CB

Example: see airport list